Time;durP1;ratioP1;P1;durP2;ratioP2;P2;SDS_P1;SDS_P2;PMS_P1;PMS_P2;Temp;Humidity;BMP_temperature;BMP_pressure;BME280_temperature;BME280_humidity;BME280_pressure;Samples;Min_cycle;Max_cycle;Signal;HPM_P1;HPM_P2
2024/01/28 05:31:37;;;;;;;0.10;0.10;;;5.20;81.30;;;;;;5364700;23;20066;-78
2024/01/28 05:34:02;;;;;;;0.10;0.10;;;5.20;81.30;;;;;;4973703;28;20038;-78
2024/01/28 05:36:29;;;;;;;0.10;0.10;;;5.20;81.30;;;;;;4970814;28;20031;-78
2024/01/28 05:38:54;;;;;;;0.10;0.10;;;5.20;81.40;;;;;;4975959;28;20162;-77
2024/01/28 05:41:20;;;;;;;0.10;0.10;;;5.10;81.40;;;;;;4964048;28;20043;-78
2024/01/28 05:43:46;;;;;;;0.17;0.10;;;5.10;81.60;;;;;;4965509;28;20496;-78
2024/01/28 05:46:12;;;;;;;0.15;0.15;;;5.10;81.60;;;;;;4957828;28;20056;-78
2024/01/28 05:48:37;;;;;;;0.10;0.10;;;5.00;81.60;;;;;;4974235;28;20030;-77
2024/01/28 05:51:04;;;;;;;0.10;0.10;;;5.10;81.70;;;;;;4975586;28;20054;-78
2024/01/28 05:53:29;;;;;;;0.10;0.10;;;5.10;81.70;;;;;;4967689;28;20023;-78
2024/01/28 05:55:55;;;;;;;0.10;0.10;;;5.10;81.80;;;;;;4957674;28;20090;-78
2024/01/28 05:58:22;;;;;;;0.10;0.10;;;5.00;81.80;;;;;;4964284;28;20491;-78
2024/01/28 06:00:48;;;;;;;0.20;0.20;;;5.00;81.90;;;;;;4960475;28;20113;-78
2024/01/28 06:03:14;;;;;;;0.20;0.20;;;5.00;81.90;;;;;;4969646;28;20549;-78
2024/01/28 06:05:40;;;;;;;0.20;0.20;;;4.90;82.00;;;;;;4972845;28;20027;-78
2024/01/28 06:08:06;;;;;;;0.10;0.10;;;5.00;82.10;;;;;;4957682;28;20039;-79
2024/01/28 06:10:32;;;;;;;0.13;0.13;;;5.00;82.10;;;;;;4956436;29;20039;-78
2024/01/28 06:12:58;;;;;;;0.10;0.10;;;5.00;82.20;;;;;;4981904;28;20034;-78
2024/01/28 06:15:23;;;;;;;0.10;0.10;;;5.00;82.20;;;;;;4976933;28;20034;-78
2024/01/28 06:17:49;;;;;;;0.10;0.10;;;4.90;82.20;;;;;;4974740;28;20031;-78
2024/01/28 06:20:15;;;;;;;0.10;0.10;;;4.90;82.30;;;;;;4975717;28;20146;-78
2024/01/28 06:22:40;;;;;;;0.10;0.10;;;4.90;82.40;;;;;;4958986;28;20470;-79
2024/01/28 06:25:07;;;;;;;0.10;0.10;;;4.80;82.50;;;;;;4963869;28;20031;-79
2024/01/28 06:27:33;;;;;;;0.10;0.10;;;4.90;82.60;;;;;;4975609;28;20022;-79
2024/01/28 06:29:58;;;;;;;0.10;0.10;;;4.80;82.60;;;;;;4977070;28;20035;-78
2024/01/28 06:32:25;;;;;;;0.10;0.10;;;4.90;82.60;;;;;;4970315;28;20039;-78
2024/01/28 06:34:51;;;;;;;0.13;0.13;;;4.90;82.60;;;;;;4969012;28;20038;-78
2024/01/28 06:37:18;;;;;;;0.17;0.17;;;4.90;82.80;;;;;;4964334;28;20022;-78
2024/01/28 06:39:44;;;;;;;0.10;0.10;;;4.90;82.90;;;;;;4978833;28;20094;-78
2024/01/28 06:42:10;;;;;;;0.10;0.10;;;4.80;83.00;;;;;;4976691;28;20023;-78
2024/01/28 06:44:36;;;;;;;0.20;0.20;;;4.80;83.10;;;;;;4981188;28;20041;-78
2024/01/28 06:47:03;;;;;;;0.10;0.10;;;4.80;83.10;;;;;;4976785;28;20012;-78
2024/01/28 06:49:29;;;;;;;0.10;0.10;;;4.80;83.20;;;;;;4979013;28;20031;-78
2024/01/28 06:51:55;;;;;;;0.10;0.10;;;4.80;83.30;;;;;;4966150;28;20085;-78
2024/01/28 06:54:21;;;;;;;0.10;0.10;;;4.80;83.30;;;;;;4979398;28;20038;-78
2024/01/28 06:56:48;;;;;;;0.10;0.10;;;4.80;83.40;;;;;;4981227;28;20046;-78
2024/01/28 06:59:14;;;;;;;0.10;0.10;;;4.80;83.40;;;;;;4974246;28;20031;-78
2024/01/28 07:01:40;;;;;;;0.10;0.10;;;4.80;83.40;;;;;;4972242;28;20019;-79
2024/01/28 07:04:05;;;;;;;0.20;0.20;;;4.80;83.40;;;;;;4976552;28;20041;-78
2024/01/28 07:06:31;;;;;;;0.10;0.10;;;4.80;83.40;;;;;;4976075;28;20486;-79
2024/01/28 07:08:57;;;;;;;0.10;0.10;;;4.80;83.60;;;;;;4973904;28;20099;-79
2024/01/28 07:11:23;;;;;;;0.10;0.10;;;4.70;83.70;;;;;;4979961;28;20111;-80
2024/01/28 07:13:49;;;;;;;0.10;0.10;;;4.80;83.70;;;;;;4966761;28;20059;-80
2024/01/28 07:16:14;;;;;;;0.10;0.10;;;4.80;83.70;;;;;;4973786;28;20503;-80
2024/01/28 07:18:40;;;;;;;0.10;0.10;;;4.80;83.70;;;;;;4970539;28;20037;-82
2024/01/28 07:21:06;;;;;;;0.10;0.10;;;4.80;83.60;;;;;;4958511;29;20039;-83
2024/01/28 07:23:31;;;;;;;0.10;0.10;;;4.90;83.50;;;;;;4971313;28;20130;-90
2024/01/28 07:25:57;;;;;;;0.10;0.10;;;4.90;83.40;;;;;;4970617;28;20019;-84
2024/01/28 07:28:23;;;;;;;0.10;0.10;;;4.90;83.40;;;;;;4977655;28;20062;-88
2024/01/28 07:30:49;;;;;;;0.10;0.10;;;4.90;83.30;;;;;;4978930;28;20125;-85
2024/01/28 07:33:15;;;;;;;0.10;0.10;;;4.90;83.30;;;;;;4978399;28;20039;-85
2024/01/28 07:35:41;;;;;;;0.10;0.10;;;4.90;83.40;;;;;;5011272;28;20023;-81
2024/01/28 07:38:08;;;;;;;0.10;0.10;;;4.90;83.50;;;;;;4981393;28;20384;-81
2024/01/28 07:40:43;;;;;;;0.10;0.10;;;4.90;83.50;;;;;;4976975;28;20082;-78
2024/01/28 07:43:09;;;;;;;;;;;4.90;83.50;;;;;;4985322;28;20026;-81
2024/01/28 07:45:37;;;;;;;0.20;0.20;;;4.90;83.50;;;;;;4959338;28;20267;-81
2024/01/28 07:48:03;;;;;;;0.10;0.10;;;4.90;83.50;;;;;;4964845;28;20069;-83
2024/01/28 07:50:29;;;;;;;0.10;0.10;;;4.90;83.50;;;;;;4977839;28;20019;-86
2024/01/28 07:52:54;;;;;;;0.17;0.17;;;4.90;83.60;;;;;;4967975;28;20027;-84
2024/01/28 07:55:20;;;;;;;0.17;0.17;;;4.90;83.50;;;;;;4958506;29;20030;-85
2024/01/28 07:57:45;;;;;;;0.17;0.17;;;4.90;83.60;;;;;;4962077;28;20074;-79
2024/01/28 08:00:12;;;;;;;0.10;0.10;;;4.90;83.60;;;;;;4973979;28;20062;-79
2024/01/28 08:02:38;;;;;;;0.20;0.20;;;4.90;83.50;;;;;;4976741;28;20031;-80
2024/01/28 08:05:04;;;;;;;0.10;0.10;;;5.00;83.50;;;;;;4975632;28;20023;-79
2024/01/28 08:07:29;;;;;;;0.20;0.20;;;4.90;83.70;;;;;;4986035;28;20026;-80
2024/01/28 08:09:55;;;;;;;0.13;0.13;;;5.00;83.60;;;;;;4984177;28;20030;-84
2024/01/28 08:12:21;;;;;;;0.10;0.10;;;5.10;83.50;;;;;;5007905;28;20035;-83
2024/01/28 08:14:46;;;;;;;0.17;0.17;;;5.10;83.30;;;;;;4981637;28;20034;-76
2024/01/28 08:17:12;;;;;;;0.17;0.17;;;5.10;83.30;;;;;;4987507;28;20089;-75
2024/01/28 08:19:38;;;;;;;0.20;0.20;;;5.20;83.30;;;;;;4986201;28;20394;-75
2024/01/28 08:22:04;;;;;;;0.15;0.15;;;5.20;83.20;;;;;;4982208;28;20025;-75
2024/01/28 08:24:30;;;;;;;0.10;0.10;;;5.20;83.30;;;;;;4979868;28;20033;-76
2024/01/28 08:26:56;;;;;;;0.17;0.17;;;5.30;83.10;;;;;;4974437;28;20122;-72
2024/01/28 08:29:22;;;;;;;0.10;0.10;;;5.30;83.00;;;;;;4976912;28;20061;-76
2024/01/28 08:31:48;;;;;;;0.10;0.10;;;5.30;82.90;;;;;;4972996;28;20158;-73
2024/01/28 08:34:14;;;;;;;0.20;0.20;;;5.30;82.80;;;;;;4975491;28;20058;-76
2024/01/28 08:36:40;;;;;;;0.20;0.20;;;5.40;82.80;;;;;;4977997;28;20038;-72
2024/01/28 08:39:05;;;;;;;0.20;0.20;;;5.40;82.60;;;;;;4974789;28;20491;-73
2024/01/28 08:41:31;;;;;;;0.20;0.20;;;5.50;82.70;;;;;;4976328;28;20629;-74
2024/01/28 08:43:57;;;;;;;0.20;0.20;;;5.50;82.70;;;;;;4973767;28;20019;-72
2024/01/28 08:46:23;;;;;;;0.20;0.20;;;5.50;82.70;;;;;;4975453;28;20497;-72
2024/01/28 08:48:48;;;;;;;0.20;0.20;;;5.60;82.60;;;;;;4974386;28;20050;-72
2024/01/28 08:51:14;;;;;;;0.10;0.10;;;5.70;82.40;;;;;;4977848;28;20035;-72
2024/01/28 08:53:42;;;;;;;0.10;0.10;;;5.70;82.20;;;;;;4978969;28;20061;-73
2024/01/28 08:56:07;;;;;;;0.20;0.20;;;5.70;82.10;;;;;;4972328;28;20105;-72
2024/01/28 08:58:33;;;;;;;0.20;0.20;;;5.80;82.00;;;;;;4980251;28;20068;-72
2024/01/28 09:00:59;;;;;;;0.20;0.20;;;5.90;81.90;;;;;;4985879;28;20457;-72
2024/01/28 09:03:24;;;;;;;0.20;0.20;;;5.90;81.80;;;;;;4985892;28;20030;-72
2024/01/28 09:05:50;;;;;;;0.20;0.20;;;6.00;81.80;;;;;;4972761;28;20035;-74
2024/01/28 09:08:16;;;;;;;0.20;0.20;;;6.00;81.60;;;;;;4961786;28;20023;-73
2024/01/28 09:10:42;;;;;;;0.20;0.20;;;6.10;81.50;;;;;;4980649;28;20045;-73
2024/01/28 09:13:07;;;;;;;0.20;0.20;;;6.20;81.50;;;;;;4975470;28;20074;-74
2024/01/28 09:15:33;;;;;;;0.20;0.20;;;6.20;81.40;;;;;;4983714;28;20449;-73
2024/01/28 09:17:59;;;;;;;0.30;0.30;;;6.30;81.10;;;;;;4984629;28;20027;-73
2024/01/28 09:20:24;;;;;;;0.30;0.30;;;6.50;80.90;;;;;;4985629;28;20054;-74
2024/01/28 09:22:50;;;;;;;0.30;0.30;;;6.70;80.60;;;;;;4977931;28;20471;-73
2024/01/28 09:25:15;;;;;;;0.30;0.30;;;6.90;80.00;;;;;;4976262;28;20380;-73
2024/01/28 09:27:42;;;;;;;0.40;0.40;;;7.50;79.20;;;;;;4973498;28;20046;-74
2024/01/28 09:30:10;;;;;;;0.90;0.90;;;8.10;77.30;;;;;;4972055;28;20031;-76
2024/01/28 09:32:38;;;;;;;1.75;1.65;;;8.90;75.60;;;;;;4975695;28;20046;-85
2024/01/28 09:35:04;;;;;;;4.70;4.40;;;9.20;73.50;;;;;;4974903;28;20084;-76
2024/01/28 09:37:30;;;;;;;5.10;4.80;;;9.60;72.40;;;;;;4973560;28;20117;-76
2024/01/28 09:39:55;;;;;;;6.30;6.00;;;9.90;71.20;;;;;;4972280;28;20043;-76
2024/01/28 09:42:36;;;;;;;5.80;5.50;;;10.10;69.90;;;;;;4972721;28;20019;-76
2024/01/28 09:45:02;;;;;;;5.70;5.40;;;10.40;69.00;;;;;;4972025;28;20046;-76
2024/01/28 09:47:32;;;;;;;6.60;6.30;;;10.50;69.00;;;;;;4975691;28;20034;-76
2024/01/28 09:49:59;;;;;;;2.80;2.60;;;10.70;68.50;;;;;;4974775;28;20027;-76
2024/01/28 09:52:25;;;;;;;1.20;1.20;;;10.40;68.90;;;;;;4974733;28;20058;-76
2024/01/28 09:54:51;;;;;;;3.65;3.45;;;9.80;70.20;;;;;;4979751;28;20065;-75
2024/01/28 09:57:16;;;;;;;3.17;2.97;;;9.60;71.60;;;;;;4994624;28;20027;-76
2024/01/28 09:59:43;;;;;;;2.10;2.00;;;9.50;72.20;;;;;;4987087;28;20041;-76
2024/01/28 10:02:09;;;;;;;0.30;0.30;;;9.20;73.00;;;;;;4969433;28;20031;-75
2024/01/28 10:04:35;;;;;;;0.20;0.20;;;9.00;73.90;;;;;;4973551;28;20027;-77
2024/01/28 10:07:02;;;;;;;0.20;0.20;;;8.80;74.80;;;;;;4974181;28;20030;-75
2024/01/28 10:09:28;;;;;;;0.20;0.20;;;8.70;75.40;;;;;;4979313;28;20019;-74
2024/01/28 10:11:56;;;;;;;0.20;0.20;;;8.60;75.90;;;;;;4987889;28;20030;-74
2024/01/28 10:14:22;;;;;;;0.20;0.20;;;8.50;76.50;;;;;;4985727;28;20529;-75
2024/01/28 10:16:49;;;;;;;0.20;0.20;;;8.50;76.90;;;;;;4963920;28;20027;-76
2024/01/28 10:19:15;;;;;;;0.13;0.13;;;8.40;77.20;;;;;;4969141;28;20391;-77
2024/01/28 10:21:46;;;;;;;0.20;0.20;;;8.40;77.40;;;;;;4998049;28;20029;-79
2024/01/28 10:24:14;;;;;;;0.20;0.20;;;8.60;77.30;;;;;;4978384;28;20102;-76
2024/01/28 10:26:40;;;;;;;0.10;0.10;;;8.60;77.40;;;;;;4981656;28;20030;-76
2024/01/28 10:29:09;;;;;;;0.15;0.15;;;8.60;77.40;;;;;;4975698;28;20034;-77
2024/01/28 10:31:34;;;;;;;0.20;0.20;;;8.60;77.50;;;;;;4979493;28;20046;-77
2024/01/28 10:34:00;;;;;;;0.20;0.20;;;8.70;77.40;;;;;;4980264;28;20027;-76
2024/01/28 10:36:27;;;;;;;0.10;0.10;;;8.80;77.50;;;;;;4967647;28;20042;-75
2024/01/28 10:39:00;;;;;;;0.17;0.17;;;8.80;77.50;;;;;;4979047;28;20061;-75
2024/01/28 10:41:26;;;;;;;0.20;0.20;;;8.70;77.70;;;;;;4983578;28;20030;-75
2024/01/28 10:44:02;;;;;;;0.20;0.20;;;8.60;78.00;;;;;;4976099;28;20026;-75
2024/01/28 10:46:52;;;;;;;0.20;0.20;;;8.70;78.10;;;;;;4978414;28;20026;-76
2024/01/28 10:49:30;;;;;;;0.20;0.20;;;8.70;78.20;;;;;;4979703;28;20041;-76
2024/01/28 10:51:57;;;;;;;0.10;0.10;;;8.80;78.30;;;;;;4997193;28;20034;-76
2024/01/28 10:54:23;;;;;;;0.10;0.10;;;8.80;78.20;;;;;;4990598;28;20031;-76
2024/01/28 10:56:53;;;;;;;0.20;0.20;;;8.80;78.40;;;;;;4969072;28;20055;-76
2024/01/28 10:59:19;;;;;;;0.10;0.10;;;8.80;78.50;;;;;;4963315;28;20031;-76
2024/01/28 11:01:46;;;;;;;0.15;0.15;;;8.90;78.30;;;;;;4976530;28;20078;-76
2024/01/28 11:04:11;;;;;;;0.20;0.20;;;8.80;78.30;;;;;;4976055;28;20038;-76
2024/01/28 11:06:37;;;;;;;0.20;0.20;;;8.90;78.50;;;;;;4958428;28;20781;-76
2024/01/28 11:09:03;;;;;;;0.20;0.20;;;9.00;78.40;;;;;;4961945;28;20062;-76
2024/01/28 11:11:30;;;;;;;0.13;0.13;;;9.00;78.40;;;;;;4979756;28;20483;-76
2024/01/28 11:13:56;;;;;;;0.20;0.20;;;9.00;78.40;;;;;;4975893;28;20027;-76
2024/01/28 11:16:22;;;;;;;0.10;0.10;;;9.00;78.60;;;;;;4975408;28;20034;-76
2024/01/28 11:18:58;;;;;;;0.10;0.10;;;9.00;78.60;;;;;;4970100;28;20038;-76
2024/01/28 11:21:26;;;;;;;0.10;0.10;;;8.90;78.90;;;;;;4959274;28;20114;-76
2024/01/28 11:23:56;;;;;;;0.10;0.10;;;9.00;79.10;;;;;;4959828;28;20027;-76
2024/01/28 11:26:25;;;;;;;0.10;0.10;;;9.00;78.80;;;;;;4979264;28;20130;-76
2024/01/28 11:28:53;;;;;;;0.10;0.10;;;9.00;78.90;;;;;;4971155;28;20019;-76
2024/01/28 11:31:32;;;;;;;0.10;0.10;;;9.10;78.80;;;;;;4985295;28;20062;-76
2024/01/28 11:34:15;;;;;;;0.10;0.10;;;9.20;78.50;;;;;;4987400;28;20082;-76
2024/01/28 11:36:45;;;;;;;0.10;0.10;;;9.20;78.60;;;;;;4974573;28;20050;-76
2024/01/28 11:39:13;;;;;;;0.10;0.10;;;9.30;78.30;;;;;;4958813;28;20066;-76
2024/01/28 11:41:42;;;;;;;0.10;0.10;;;9.30;78.70;;;;;;4976136;28;20483;-76
2024/01/28 11:44:08;;;;;;;0.10;0.10;;;9.30;78.60;;;;;;4978940;28;20025;-75
2024/01/28 11:46:36;;;;;;;0.10;0.10;;;9.50;78.50;;;;;;4976037;28;20026;-76
2024/01/28 11:49:02;;;;;;;0.10;0.10;;;9.60;78.40;;;;;;4959569;28;20024;-76
2024/01/28 11:51:31;;;;;;;0.15;0.15;;;9.70;78.30;;;;;;4979080;28;20026;-76
2024/01/28 11:54:00;;;;;;;0.20;0.20;;;9.80;78.30;;;;;;4960879;28;20027;-76
2024/01/28 11:56:26;;;;;;;0.10;0.10;;;9.90;78.10;;;;;;4972414;28;20020;-76
2024/01/28 11:58:52;;;;;;;0.10;0.10;;;10.00;78.10;;;;;;4959419;28;20562;-76
2024/01/28 12:01:18;;;;;;;0.10;0.10;;;10.10;78.10;;;;;;4967892;28;20031;-76
2024/01/28 12:03:44;;;;;;;0.10;0.10;;;10.20;78.10;;;;;;4969718;28;20121;-76
2024/01/28 12:06:09;;;;;;;0.20;0.20;;;10.20;77.90;;;;;;4973098;28;20102;-76
2024/01/28 12:08:43;;;;;;;0.10;0.10;;;10.30;78.00;;;;;;4958878;29;20118;-76
2024/01/28 12:11:13;;;;;;;0.10;0.10;;;10.50;78.20;;;;;;4974230;28;20487;-76
2024/01/28 12:13:40;;;;;;;0.10;0.10;;;10.60;77.50;;;;;;4968469;28;20110;-76
2024/01/28 12:16:06;;;;;;;0.10;0.10;;;10.70;77.30;;;;;;4974316;28;20034;-76
2024/01/28 12:18:41;;;;;;;0.10;0.10;;;10.80;77.40;;;;;;4977111;28;20031;-76
2024/01/28 12:21:20;;;;;;;0.10;0.10;;;10.80;76.90;;;;;;4975419;28;20027;-76
2024/01/28 12:23:47;;;;;;;0.10;0.10;;;10.90;76.90;;;;;;4959058;28;20038;-76
2024/01/28 12:26:15;;;;;;;0.10;0.10;;;10.90;76.70;;;;;;4968115;28;21017;-76
2024/01/28 12:28:42;;;;;;;0.10;0.10;;;11.00;76.80;;;;;;4958524;29;20027;-76
2024/01/28 12:31:09;;;;;;;0.10;0.10;;;11.00;76.40;;;;;;4972636;28;20053;-76
2024/01/28 12:33:35;;;;;;;0.10;0.10;;;11.10;76.60;;;;;;4973871;28;20097;-76
2024/01/28 12:36:01;;;;;;;0.10;0.10;;;11.20;76.30;;;;;;4972364;28;20058;-76
2024/01/28 12:38:26;;;;;;;0.10;0.10;;;11.20;76.00;;;;;;4977858;28;20031;-76
2024/01/28 12:40:52;;;;;;;0.10;0.10;;;11.20;76.20;;;;;;4974082;28;20773;-76
2024/01/28 12:43:18;;;;;;;0.10;0.10;;;11.30;76.30;;;;;;4980463;28;20027;-76
2024/01/28 12:45:43;;;;;;;0.10;0.10;;;11.30;76.00;;;;;;4968454;28;20019;-76
2024/01/28 12:48:09;;;;;;;0.10;0.10;;;11.40;76.20;;;;;;4958241;28;20063;-76
2024/01/28 12:50:34;;;;;;;0.10;0.10;;;11.50;76.00;;;;;;4972164;28;20030;-76
2024/01/28 12:53:00;;;;;;;0.10;0.10;;;11.50;75.80;;;;;;4963379;28;20038;-76
2024/01/28 12:55:26;;;;;;;0.10;0.10;;;11.60;75.50;;;;;;4970617;28;20043;-76
2024/01/28 12:57:52;;;;;;;0.20;0.20;;;11.70;75.90;;;;;;4975494;28;20035;-76
2024/01/28 13:00:17;;;;;;;0.10;0.10;;;11.70;75.80;;;;;;4968362;28;20031;-76
2024/01/28 13:02:43;;;;;;;0.10;0.10;;;11.80;75.90;;;;;;4977511;28;20081;-76
2024/01/28 13:05:14;;;;;;;0.10;0.10;;;11.80;75.90;;;;;;4977230;28;20405;-76
2024/01/28 13:07:40;;;;;;;0.10;0.10;;;11.80;75.40;;;;;;4958546;28;20031;-76
2024/01/28 13:10:06;;;;;;;0.10;0.10;;;11.90;75.50;;;;;;4967366;28;20031;-76
2024/01/28 13:12:37;;;;;;;0.10;0.10;;;11.90;75.80;;;;;;4977279;28;20031;-76
2024/01/28 13:15:07;;;;;;;0.10;0.10;;;12.00;75.50;;;;;;4966352;28;20445;-76
2024/01/28 13:17:33;;;;;;;0.10;0.10;;;12.00;75.70;;;;;;4976611;28;20023;-76
2024/01/28 13:19:58;;;;;;;0.10;0.10;;;12.00;75.80;;;;;;4966468;28;20127;-76
2024/01/28 13:22:24;;;;;;;0.10;0.10;;;12.10;75.70;;;;;;4958156;29;20054;-77
2024/01/28 13:24:52;;;;;;;0.10;0.10;;;12.10;75.90;;;;;;4964128;28;20478;-76
2024/01/28 13:27:19;;;;;;;0.10;0.10;;;12.20;75.40;;;;;;4973206;28;20034;-76
2024/01/28 13:29:44;;;;;;;0.10;0.10;;;12.20;75.20;;;;;;4961839;28;20031;-76
2024/01/28 13:32:10;;;;;;;0.10;0.10;;;12.20;75.30;;;;;;4976065;28;20039;-76
2024/01/28 13:34:36;;;;;;;0.10;0.10;;;12.20;75.50;;;;;;4977138;28;20129;-76
2024/01/28 13:37:02;;;;;;;0.10;0.10;;;12.20;75.20;;;;;;4975164;28;20621;-76
2024/01/28 13:39:29;;;;;;;0.10;0.10;;;12.20;75.30;;;;;;4976867;28;20046;-76
2024/01/28 13:41:54;;;;;;;0.10;0.10;;;12.30;75.70;;;;;;4976914;28;20110;-76
2024/01/28 13:44:20;;;;;;;0.10;0.10;;;12.30;75.90;;;;;;4977009;28;20066;-76
2024/01/28 13:46:46;;;;;;;0.10;0.10;;;12.40;75.30;;;;;;4977062;28;20031;-76
2024/01/28 13:49:12;;;;;;;0.10;0.10;;;12.30;75.50;;;;;;4959117;28;20037;-76
2024/01/28 13:51:38;;;;;;;0.10;0.10;;;12.40;75.40;;;;;;4965137;28;20034;-76
2024/01/28 13:54:04;;;;;;;0.15;0.10;;;12.50;75.90;;;;;;4957846;29;20106;-76
2024/01/28 13:56:31;;;;;;;0.10;0.10;;;12.50;75.60;;;;;;4975084;28;20065;-76
2024/01/28 13:58:57;;;;;;;0.10;0.10;;;12.60;75.20;;;;;;4970942;28;20474;-76
2024/01/28 14:01:25;;;;;;;0.10;0.10;;;12.70;75.80;;;;;;4959674;28;20024;-76
2024/01/28 14:03:51;;;;;;;0.10;0.10;;;12.70;75.50;;;;;;4961803;28;20023;-76
2024/01/28 14:06:16;;;;;;;0.10;0.10;;;12.80;75.40;;;;;;4972801;28;20110;-76
2024/01/28 14:08:42;;;;;;;0.10;0.10;;;12.80;75.70;;;;;;4973856;28;20033;-76
2024/01/28 14:11:08;;;;;;;0.10;0.10;;;12.90;75.60;;;;;;4971708;28;20115;-76
2024/01/28 14:13:33;;;;;;;0.10;0.10;;;12.80;75.90;;;;;;4975197;28;20027;-76
2024/01/28 14:15:59;;;;;;;0.10;0.10;;;12.80;75.40;;;;;;4973254;28;20034;-76
2024/01/28 14:18:24;;;;;;;0.10;0.10;;;12.80;75.30;;;;;;4964650;28;20036;-76
2024/01/28 14:20:50;;;;;;;0.10;0.10;;;12.80;75.60;;;;;;4964019;28;20027;-76
2024/01/28 14:23:16;;;;;;;0.10;0.10;;;12.80;75.60;;;;;;4957184;29;20039;-76
2024/01/28 14:25:41;;;;;;;0.10;0.10;;;12.90;75.50;;;;;;4967598;28;20023;-76
2024/01/28 14:28:07;;;;;;;0.10;0.10;;;12.90;75.60;;;;;;4968673;28;20114;-76
2024/01/28 14:30:33;;;;;;;0.10;0.10;;;12.90;75.50;;;;;;4965634;28;20038;-76
2024/01/28 14:32:59;;;;;;;0.10;0.10;;;13.00;75.70;;;;;;4976543;28;20037;-76
2024/01/28 14:35:25;;;;;;;0.10;0.10;;;13.00;75.60;;;;;;4973542;28;20031;-76
2024/01/28 14:37:50;;;;;;;0.10;0.10;;;13.00;75.70;;;;;;4976740;28;20086;-76
2024/01/28 14:40:17;;;;;;;0.10;0.10;;;13.00;75.30;;;;;;4972789;28;20118;-76
2024/01/28 14:42:43;;;;;;;0.10;0.10;;;13.00;75.40;;;;;;4958922;28;20027;-76
2024/01/28 14:45:11;;;;;;;0.10;0.10;;;13.00;75.10;;;;;;4969327;28;20045;-77
2024/01/28 14:47:37;;;;;;;0.10;0.10;;;13.10;75.30;;;;;;4967999;28;20042;-76
2024/01/28 14:50:04;;;;;;;0.10;0.10;;;13.10;75.00;;;;;;4959031;28;20030;-76
2024/01/28 14:52:30;;;;;;;0.10;0.10;;;13.10;75.20;;;;;;4980549;28;20031;-76
2024/01/28 14:54:56;;;;;;;0.10;0.10;;;13.10;75.30;;;;;;4971291;28;20034;-76
2024/01/28 14:57:22;;;;;;;0.10;0.10;;;13.10;75.40;;;;;;4979220;28;20034;-76
2024/01/28 14:59:48;;;;;;;0.10;0.10;;;13.20;75.40;;;;;;4967292;28;20039;-76
2024/01/28 15:02:13;;;;;;;0.10;0.10;;;13.10;75.20;;;;;;4975961;28;20492;-76
2024/01/28 15:04:39;;;;;;;0.10;0.10;;;13.10;75.30;;;;;;4978063;28;20069;-76
2024/01/28 15:07:05;;;;;;;0.10;0.10;;;13.10;75.40;;;;;;4965907;28;20038;-76
2024/01/28 15:09:30;;;;;;;0.10;0.10;;;13.10;75.50;;;;;;4959964;28;20020;-76
2024/01/28 15:11:56;;;;;;;0.10;0.10;;;13.20;75.90;;;;;;4971565;28;20031;-76
2024/01/28 15:14:22;;;;;;;0.10;0.10;;;13.10;75.80;;;;;;4960316;29;20093;-76
2024/01/28 15:16:48;;;;;;;0.10;0.10;;;13.10;76.00;;;;;;4966877;28;20057;-76
2024/01/28 15:19:13;;;;;;;0.10;0.10;;;13.00;75.80;;;;;;4960216;28;20031;-76
2024/01/28 15:21:39;;;;;;;0.10;0.10;;;12.90;76.10;;;;;;4974847;28;20026;-76
2024/01/28 15:24:05;;;;;;;0.10;0.10;;;12.80;76.30;;;;;;4977750;28;20065;-77
2024/01/28 15:26:30;;;;;;;0.10;0.10;;;12.80;76.50;;;;;;4978774;28;20039;-76
2024/01/28 15:28:57;;;;;;;0.10;0.10;;;12.70;76.90;;;;;;4975483;28;20023;-76
2024/01/28 15:31:23;;;;;;;0.10;0.10;;;12.70;77.10;;;;;;4968612;28;20058;-76
2024/01/28 15:33:48;;;;;;;0.10;0.10;;;12.60;77.30;;;;;;4979367;28;20033;-76
2024/01/28 15:36:14;;;;;;;0.10;0.10;;;12.60;77.50;;;;;;4973155;28;20519;-76
2024/01/28 15:38:40;;;;;;;0.10;0.10;;;12.50;77.80;;;;;;4958716;29;20495;-77
2024/01/28 15:41:07;;;;;;;0.10;0.10;;;12.50;78.00;;;;;;4974141;28;20038;-76
2024/01/28 15:43:33;;;;;;;0.10;0.10;;;12.40;78.30;;;;;;4974986;28;20412;-76
2024/01/28 15:46:03;;;;;;;0.10;0.10;;;12.40;78.20;;;;;;4966955;28;20055;-76
2024/01/28 15:48:29;;;;;;;0.10;0.10;;;12.30;78.60;;;;;;4978784;28;20033;-76
2024/01/28 15:50:55;;;;;;;0.10;0.10;;;12.30;78.60;;;;;;4971165;28;20031;-76
2024/01/28 15:53:20;;;;;;;0.00;0.00;;;12.30;78.80;;;;;;4979331;28;20077;-76
2024/01/28 15:55:46;;;;;;;0.10;0.10;;;12.20;79.00;;;;;;4974317;28;20629;-76
2024/01/28 15:58:12;;;;;;;0.10;0.10;;;12.20;79.20;;;;;;4959353;28;20033;-76
2024/01/28 16:00:37;;;;;;;0.05;0.05;;;12.20;79.60;;;;;;4962437;28;20039;-77
2024/01/28 16:03:03;;;;;;;0.10;0.10;;;12.20;79.60;;;;;;4978130;28;20062;-78
2024/01/28 16:05:29;;;;;;;0.10;0.10;;;12.10;79.70;;;;;;4964201;28;20066;-78
2024/01/28 16:08:00;;;;;;;0.10;0.10;;;12.10;79.90;;;;;;4977600;28;20047;-83
2024/01/28 16:10:26;;;;;;;0.10;0.10;;;12.10;79.90;;;;;;4961791;28;20042;-78
2024/01/28 16:12:52;;;;;;;0.00;0.00;;;12.00;80.00;;;;;;4976316;28;20027;-78
2024/01/28 16:15:17;;;;;;;0.10;0.10;;;12.00;80.10;;;;;;4978623;28;20041;-78
2024/01/28 16:17:43;;;;;;;0.10;0.10;;;12.00;80.20;;;;;;4968889;28;20038;-78
2024/01/28 16:20:09;;;;;;;0.10;0.10;;;12.00;80.20;;;;;;4973798;28;20043;-78
2024/01/28 16:22:35;;;;;;;0.10;0.10;;;11.90;80.40;;;;;;4965537;28;20102;-80
2024/01/28 16:25:02;;;;;;;0.10;0.10;;;11.90;80.50;;;;;;4963592;28;20053;-79
2024/01/28 16:27:27;;;;;;;0.10;0.10;;;11.80;80.60;;;;;;4972565;28;20505;-78
2024/01/28 16:29:53;;;;;;;0.10;0.10;;;11.80;80.80;;;;;;4958903;28;20058;-77
2024/01/28 16:32:19;;;;;;;0.10;0.10;;;11.80;81.00;;;;;;4970859;28;20530;-76
2024/01/28 16:34:45;;;;;;;0.10;0.10;;;11.70;81.30;;;;;;4977007;28;20039;-75
2024/01/28 16:37:11;;;;;;;0.10;0.10;;;11.70;81.40;;;;;;4970464;28;20035;-78
2024/01/28 16:39:37;;;;;;;0.10;0.10;;;11.60;81.40;;;;;;4977247;28;20379;-75
2024/01/28 16:42:03;;;;;;;0.10;0.10;;;11.60;81.70;;;;;;4977456;28;20046;-76
2024/01/28 16:44:28;;;;;;;0.10;0.10;;;11.60;81.70;;;;;;4965011;28;20038;-76
2024/01/28 16:46:54;;;;;;;0.10;0.10;;;11.50;81.90;;;;;;4973622;28;20470;-80
2024/01/28 16:49:20;;;;;;;0.10;0.10;;;11.40;82.10;;;;;;4971920;28;20511;-76
2024/01/28 16:51:46;;;;;;;0.10;0.10;;;11.30;82.20;;;;;;4974055;28;20384;-77
2024/01/28 16:54:12;;;;;;;0.10;0.10;;;11.30;82.30;;;;;;4964338;28;20027;-76
2024/01/28 16:56:38;;;;;;;0.10;0.10;;;11.30;82.40;;;;;;4975335;28;20109;-76
2024/01/28 16:59:04;;;;;;;0.10;0.10;;;11.30;82.40;;;;;;4978273;28;20057;-78
2024/01/28 17:01:30;;;;;;;0.10;0.10;;;11.20;82.50;;;;;;4971394;28;20023;-76
2024/01/28 17:03:55;;;;;;;0.10;0.10;;;11.20;82.70;;;;;;4970028;28;20085;-77
2024/01/28 17:06:22;;;;;;;0.10;0.10;;;11.20;82.90;;;;;;4969207;28;20027;-77
2024/01/28 17:08:47;;;;;;;0.10;0.10;;;11.10;83.00;;;;;;4974356;28;20031;-78
2024/01/28 17:11:13;;;;;;;0.10;0.10;;;11.10;83.10;;;;;;4975201;28;20034;-78
2024/01/28 17:13:39;;;;;;;0.10;0.10;;;11.00;83.20;;;;;;4973463;28;20034;-78
2024/01/28 17:16:05;;;;;;;0.10;0.10;;;11.00;83.30;;;;;;4972649;28;20037;-77
2024/01/28 17:18:33;;;;;;;0.10;0.10;;;11.00;83.20;;;;;;4971007;28;20030;-77
2024/01/28 17:20:59;;;;;;;0.10;0.10;;;11.00;83.10;;;;;;4974133;28;20125;-77
2024/01/28 17:23:25;;;;;;;0.10;0.10;;;10.90;83.40;;;;;;4975631;28;20018;-77
2024/01/28 17:25:52;;;;;;;0.10;0.10;;;10.80;83.50;;;;;;4973450;28;20019;-78
2024/01/28 17:28:18;;;;;;;0.10;0.10;;;10.80;83.50;;;;;;4971107;28;20042;-77
2024/01/28 17:30:44;;;;;;;0.10;0.10;;;10.80;83.60;;;;;;4975671;28;20070;-77
2024/01/28 17:33:11;;;;;;;0.10;0.10;;;10.80;83.80;;;;;;4972087;28;20043;-77
2024/01/28 17:35:37;;;;;;;0.10;0.10;;;10.80;83.90;;;;;;4974292;28;20399;-77
2024/01/28 17:38:03;;;;;;;0.10;0.10;;;10.80;84.00;;;;;;4973269;28;20058;-77
2024/01/28 17:40:29;;;;;;;0.10;0.10;;;10.70;84.10;;;;;;4973136;28;20480;-82
2024/01/28 17:42:55;;;;;;;0.10;0.10;;;10.70;84.10;;;;;;4976913;28;20026;-79
2024/01/28 17:45:22;;;;;;;0.10;0.10;;;10.70;84.10;;;;;;4976144;28;20027;-78
2024/01/28 17:47:48;;;;;;;0.10;0.10;;;10.70;84.20;;;;;;4973310;28;20486;-78
2024/01/28 17:50:14;;;;;;;0.10;0.10;;;10.60;84.30;;;;;;4956810;28;20027;-78
2024/01/28 17:52:40;;;;;;;0.10;0.10;;;10.60;84.40;;;;;;4974161;28;20414;-78
2024/01/28 17:55:06;;;;;;;0.10;0.10;;;10.60;84.30;;;;;;4969362;28;20487;-78
2024/01/28 17:57:34;;;;;;;0.10;0.10;;;10.50;84.40;;;;;;4969567;28;20442;-78
2024/01/28 18:00:00;;;;;;;0.10;0.10;;;10.50;84.50;;;;;;4972214;28;20023;-78
2024/01/28 18:02:26;;;;;;;0.10;0.10;;;10.50;84.60;;;;;;4968017;28;20030;-78
2024/01/28 18:04:52;;;;;;;0.10;0.10;;;10.40;84.70;;;;;;4970587;28;20105;-79
2024/01/28 18:07:18;;;;;;;0.10;0.10;;;10.50;84.70;;;;;;4972392;28;20027;-79
2024/01/28 18:09:43;;;;;;;0.10;0.10;;;10.40;84.70;;;;;;4973617;28;20050;-79
2024/01/28 18:12:09;;;;;;;0.10;0.10;;;10.40;84.70;;;;;;4969990;28;20054;-79
2024/01/28 18:14:35;;;;;;;0.20;0.20;;;10.40;84.50;;;;;;4994455;28;20029;-79
2024/01/28 18:17:01;;;;;;;0.10;0.10;;;10.30;84.60;;;;;;4978556;28;20216;-79
2024/01/28 18:19:27;;;;;;;0.10;0.10;;;10.30;84.40;;;;;;4979056;28;20030;-79